Terminal Aerodrome Forecast
Issued by NWS

Home | Current Version | Previous Version | Text Only | Print | Product List | Glossary On
Versions: 1 2 3 4 5 6 7 8 9 10 11 12 13 14
833
FTUS42 KMLB 290531
TAFSFB
TAF
KSFB 290531Z 2906/3006 07005KT P6SM FEW250
     FM291500 08009KT P6SM VCSH SCT035 BKN060 BKN250
     FM291800 08012G18KT P6SM VCTS BKN040CB BKN080
      TEMPO 2919/2921 3SM TSRA BKN030CB
     FM300000 08005KT P6SM SCT040 BKN250=

USA.gov is the U.S. government's official web portal to all federal, state and local government web resources and services.